sensor_id;sensor_type;location;lat;lon;timestamp;P1;durP1;ratioP1;P2;durP2;ratioP2
13331;SDS011;6735;51.456;12.626;2024-02-15T00:00:28;5.43;;;4.93;;
13331;SDS011;6735;51.456;12.626;2024-02-15T00:02:54;5.53;;;5.03;;
13331;SDS011;6735;51.456;12.626;2024-02-15T00:05:19;6.30;;;5.20;;
13331;SDS011;6735;51.456;12.626;2024-02-15T00:07:45;5.33;;;4.80;;
13331;SDS011;6735;51.456;12.626;2024-02-15T00:10:13;6.73;;;5.40;;
13331;SDS011;6735;51.456;12.626;2024-02-15T00:12:39;5.60;;;5.10;;
13331;SDS011;6735;51.456;12.626;2024-02-15T00:15:05;7.87;;;5.00;;
13331;SDS011;6735;51.456;12.626;2024-02-15T00:17:30;6.30;;;5.30;;
13331;SDS011;6735;51.456;12.626;2024-02-15T00:19:57;6.20;;;5.60;;
13331;SDS011;6735;51.456;12.626;2024-02-15T00:22:22;5.83;;;5.23;;
13331;SDS011;6735;51.456;12.626;2024-02-15T00:24:48;5.97;;;4.77;;
13331;SDS011;6735;51.456;12.626;2024-02-15T00:27:14;5.80;;;5.30;;
13331;SDS011;6735;51.456;12.626;2024-02-15T00:29:40;5.77;;;4.97;;
13331;SDS011;6735;51.456;12.626;2024-02-15T00:32:06;5.67;;;4.97;;
13331;SDS011;6735;51.456;12.626;2024-02-15T00:34:32;9.87;;;5.23;;
13331;SDS011;6735;51.456;12.626;2024-02-15T00:36:58;5.03;;;4.57;;
13331;SDS011;6735;51.456;12.626;2024-02-15T00:39:24;4.63;;;4.23;;
13331;SDS011;6735;51.456;12.626;2024-02-15T00:41:49;6.03;;;5.43;;
13331;SDS011;6735;51.456;12.626;2024-02-15T00:44:15;5.37;;;4.87;;
13331;SDS011;6735;51.456;12.626;2024-02-15T00:46:40;5.60;;;5.10;;
13331;SDS011;6735;51.456;12.626;2024-02-15T00:49:06;5.30;;;4.77;;
13331;SDS011;6735;51.456;12.626;2024-02-15T00:51:32;6.53;;;4.30;;
13331;SDS011;6735;51.456;12.626;2024-02-15T00:54:01;5.17;;;4.73;;
13331;SDS011;6735;51.456;12.626;2024-02-15T00:56:27;6.43;;;5.07;;
13331;SDS011;6735;51.456;12.626;2024-02-15T00:58:54;5.00;;;4.43;;
13331;SDS011;6735;51.456;12.626;2024-02-15T01:01:20;4.33;;;4.00;;
13331;SDS011;6735;51.456;12.626;2024-02-15T01:03:46;4.87;;;4.37;;
13331;SDS011;6735;51.456;12.626;2024-02-15T01:06:11;4.83;;;4.43;;
13331;SDS011;6735;51.456;12.626;2024-02-15T01:08:36;4.90;;;4.40;;
13331;SDS011;6735;51.456;12.626;2024-02-15T01:11:02;4.80;;;4.40;;
13331;SDS011;6735;51.456;12.626;2024-02-15T01:13:27;4.80;;;4.30;;
13331;SDS011;6735;51.456;12.626;2024-02-15T01:15:53;5.70;;;4.27;;
13331;SDS011;6735;51.456;12.626;2024-02-15T01:18:18;5.63;;;4.17;;
13331;SDS011;6735;51.456;12.626;2024-02-15T01:20:44;4.60;;;4.20;;
13331;SDS011;6735;51.456;12.626;2024-02-15T01:23:10;7.20;;;4.87;;
13331;SDS011;6735;51.456;12.626;2024-02-15T01:25:35;4.70;;;4.30;;
13331;SDS011;6735;51.456;12.626;2024-02-15T01:28:01;4.83;;;4.43;;
13331;SDS011;6735;51.456;12.626;2024-02-15T01:30:27;4.50;;;4.10;;
13331;SDS011;6735;51.456;12.626;2024-02-15T01:32:53;4.43;;;4.03;;
13331;SDS011;6735;51.456;12.626;2024-02-15T01:35:19;4.80;;;4.40;;
13331;SDS011;6735;51.456;12.626;2024-02-15T01:37:44;4.50;;;4.10;;
13331;SDS011;6735;51.456;12.626;2024-02-15T01:40:10;4.73;;;4.33;;
13331;SDS011;6735;51.456;12.626;2024-02-15T01:42:37;4.83;;;4.43;;
13331;SDS011;6735;51.456;12.626;2024-02-15T01:45:03;4.90;;;4.40;;
13331;SDS011;6735;51.456;12.626;2024-02-15T01:47:30;4.90;;;4.40;;
13331;SDS011;6735;51.456;12.626;2024-02-15T01:49:55;4.67;;;4.27;;
13331;SDS011;6735;51.456;12.626;2024-02-15T01:52:21;4.40;;;4.00;;
13331;SDS011;6735;51.456;12.626;2024-02-15T01:54:47;4.37;;;4.00;;
13331;SDS011;6735;51.456;12.626;2024-02-15T01:57:13;4.67;;;4.03;;
13331;SDS011;6735;51.456;12.626;2024-02-15T01:59:39;4.00;;;3.70;;
13331;SDS011;6735;51.456;12.626;2024-02-15T02:02:06;4.20;;;3.80;;
13331;SDS011;6735;51.456;12.626;2024-02-15T02:04:36;3.83;;;3.43;;
13331;SDS011;6735;51.456;12.626;2024-02-15T02:07:03;3.70;;;3.40;;
13331;SDS011;6735;51.456;12.626;2024-02-15T02:09:28;5.70;;;3.50;;
13331;SDS011;6735;51.456;12.626;2024-02-15T02:11:54;5.13;;;4.10;;
13331;SDS011;6735;51.456;12.626;2024-02-15T02:14:19;3.90;;;3.60;;
13331;SDS011;6735;51.456;12.626;2024-02-15T02:16:45;4.30;;;4.00;;
13331;SDS011;6735;51.456;12.626;2024-02-15T02:19:11;5.20;;;3.70;;
13331;SDS011;6735;51.456;12.626;2024-02-15T02:21:37;3.73;;;3.40;;
13331;SDS011;6735;51.456;12.626;2024-02-15T02:24:04;3.83;;;3.53;;
13331;SDS011;6735;51.456;12.626;2024-02-15T02:26:37;3.40;;;3.20;;
13331;SDS011;6735;51.456;12.626;2024-02-15T02:29:03;3.67;;;3.37;;
13331;SDS011;6735;51.456;12.626;2024-02-15T02:31:32;3.20;;;3.00;;
13331;SDS011;6735;51.456;12.626;2024-02-15T02:33:59;3.50;;;3.20;;
13331;SDS011;6735;51.456;12.626;2024-02-15T02:36:25;4.10;;;3.47;;
13331;SDS011;6735;51.456;12.626;2024-02-15T02:38:51;3.43;;;3.13;;
13331;SDS011;6735;51.456;12.626;2024-02-15T02:41:17;4.00;;;3.70;;
13331;SDS011;6735;51.456;12.626;2024-02-15T02:43:44;3.50;;;3.20;;
13331;SDS011;6735;51.456;12.626;2024-02-15T02:46:10;5.23;;;3.20;;
13331;SDS011;6735;51.456;12.626;2024-02-15T02:48:36;4.40;;;3.30;;
13331;SDS011;6735;51.456;12.626;2024-02-15T02:51:02;3.43;;;3.20;;
13331;SDS011;6735;51.456;12.626;2024-02-15T02:53:28;4.10;;;3.30;;
13331;SDS011;6735;51.456;12.626;2024-02-15T02:55:54;3.20;;;2.90;;
13331;SDS011;6735;51.456;12.626;2024-02-15T02:58:21;3.33;;;3.03;;
13331;SDS011;6735;51.456;12.626;2024-02-15T03:00:47;3.27;;;3.00;;
13331;SDS011;6735;51.456;12.626;2024-02-15T03:03:14;3.30;;;3.10;;
13331;SDS011;6735;51.456;12.626;2024-02-15T03:05:40;4.03;;;3.23;;
13331;SDS011;6735;51.456;12.626;2024-02-15T03:08:06;3.27;;;3.07;;
13331;SDS011;6735;51.456;12.626;2024-02-15T03:10:34;3.00;;;2.80;;
13331;SDS011;6735;51.456;12.626;2024-02-15T03:12:59;3.00;;;2.70;;
13331;SDS011;6735;51.456;12.626;2024-02-15T03:15:25;2.80;;;2.60;;
13331;SDS011;6735;51.456;12.626;2024-02-15T03:21:12;4.10;;;2.80;;
13331;SDS011;6735;51.456;12.626;2024-02-15T03:23:37;3.10;;;2.90;;
13331;SDS011;6735;51.456;12.626;2024-02-15T03:26:03;3.00;;;2.80;;
13331;SDS011;6735;51.456;12.626;2024-02-15T03:28:28;2.93;;;2.73;;
13331;SDS011;6735;51.456;12.626;2024-02-15T03:30:54;3.47;;;3.17;;
13331;SDS011;6735;51.456;12.626;2024-02-15T03:33:20;2.93;;;2.70;;
13331;SDS011;6735;51.456;12.626;2024-02-15T03:35:51;3.10;;;2.83;;
13331;SDS011;6735;51.456;12.626;2024-02-15T03:38:16;3.30;;;3.00;;
13331;SDS011;6735;51.456;12.626;2024-02-15T03:40:42;3.50;;;3.00;;
13331;SDS011;6735;51.456;12.626;2024-02-15T03:43:08;3.20;;;2.60;;
13331;SDS011;6735;51.456;12.626;2024-02-15T03:45:33;2.93;;;2.73;;
13331;SDS011;6735;51.456;12.626;2024-02-15T03:47:59;3.20;;;2.90;;
13331;SDS011;6735;51.456;12.626;2024-02-15T03:50:25;3.63;;;3.33;;
13331;SDS011;6735;51.456;12.626;2024-02-15T03:52:50;3.03;;;2.83;;
13331;SDS011;6735;51.456;12.626;2024-02-15T03:55:16;4.17;;;3.13;;
13331;SDS011;6735;51.456;12.626;2024-02-15T03:57:41;3.57;;;3.00;;
13331;SDS011;6735;51.456;12.626;2024-02-15T04:00:11;3.60;;;3.00;;
13331;SDS011;6735;51.456;12.626;2024-02-15T04:02:40;3.00;;;2.70;;
13331;SDS011;6735;51.456;12.626;2024-02-15T04:05:06;3.30;;;2.70;;
13331;SDS011;6735;51.456;12.626;2024-02-15T04:07:32;3.27;;;2.63;;
13331;SDS011;6735;51.456;12.626;2024-02-15T04:09:58;4.60;;;2.90;;
13331;SDS011;6735;51.456;12.626;2024-02-15T04:12:25;3.20;;;2.90;;
13331;SDS011;6735;51.456;12.626;2024-02-15T04:14:51;3.37;;;3.07;;
13331;SDS011;6735;51.456;12.626;2024-02-15T04:17:17;3.60;;;3.20;;
13331;SDS011;6735;51.456;12.626;2024-02-15T04:19:46;3.00;;;2.80;;
13331;SDS011;6735;51.456;12.626;2024-02-15T04:22:13;3.10;;;2.80;;
13331;SDS011;6735;51.456;12.626;2024-02-15T04:24:41;3.53;;;3.23;;
13331;SDS011;6735;51.456;12.626;2024-02-15T04:27:06;3.37;;;2.90;;
13331;SDS011;6735;51.456;12.626;2024-02-15T04:29:45;3.30;;;2.87;;
13331;SDS011;6735;51.456;12.626;2024-02-15T04:32:11;3.23;;;2.97;;
13331;SDS011;6735;51.456;12.626;2024-02-15T04:34:38;3.43;;;3.13;;
13331;SDS011;6735;51.456;12.626;2024-02-15T04:37:06;5.97;;;2.73;;
13331;SDS011;6735;51.456;12.626;2024-02-15T04:39:32;3.00;;;2.80;;
13331;SDS011;6735;51.456;12.626;2024-02-15T04:41:58;4.83;;;2.83;;
13331;SDS011;6735;51.456;12.626;2024-02-15T04:44:25;2.60;;;2.40;;
13331;SDS011;6735;51.456;12.626;2024-02-15T04:46:52;3.97;;;2.70;;
13331;SDS011;6735;51.456;12.626;2024-02-15T04:49:18;3.87;;;2.63;;
13331;SDS011;6735;51.456;12.626;2024-02-15T04:51:44;2.80;;;2.60;;
13331;SDS011;6735;51.456;12.626;2024-02-15T04:54:10;2.90;;;2.70;;
13331;SDS011;6735;51.456;12.626;2024-02-15T04:56:39;4.20;;;3.10;;
13331;SDS011;6735;51.456;12.626;2024-02-15T04:59:04;3.27;;;2.97;;
13331;SDS011;6735;51.456;12.626;2024-02-15T05:01:33;4.13;;;2.60;;
13331;SDS011;6735;51.456;12.626;2024-02-15T05:04:00;2.70;;;2.50;;
13331;SDS011;6735;51.456;12.626;2024-02-15T05:06:28;3.13;;;2.60;;
13331;SDS011;6735;51.456;12.626;2024-02-15T05:08:54;2.83;;;2.63;;
13331;SDS011;6735;51.456;12.626;2024-02-15T05:11:21;3.57;;;3.27;;
13331;SDS011;6735;51.456;12.626;2024-02-15T05:13:47;4.00;;;2.70;;
13331;SDS011;6735;51.456;12.626;2024-02-15T05:16:15;3.07;;;2.87;;
13331;SDS011;6735;51.456;12.626;2024-02-15T05:18:41;3.00;;;2.80;;
13331;SDS011;6735;51.456;12.626;2024-02-15T05:21:07;2.60;;;2.40;;
13331;SDS011;6735;51.456;12.626;2024-02-15T05:23:34;2.57;;;2.37;;
13331;SDS011;6735;51.456;12.626;2024-02-15T05:26:00;2.97;;;2.50;;
13331;SDS011;6735;51.456;12.626;2024-02-15T05:28:25;3.10;;;2.80;;
13331;SDS011;6735;51.456;12.626;2024-02-15T05:31:11;2.97;;;2.77;;
13331;SDS011;6735;51.456;12.626;2024-02-15T05:33:40;3.63;;;2.60;;
13331;SDS011;6735;51.456;12.626;2024-02-15T05:36:09;3.57;;;2.80;;
13331;SDS011;6735;51.456;12.626;2024-02-15T05:38:36;4.03;;;3.20;;
13331;SDS011;6735;51.456;12.626;2024-02-15T05:41:01;3.00;;;2.30;;
13331;SDS011;6735;51.456;12.626;2024-02-15T05:43:27;3.63;;;2.70;;
13331;SDS011;6735;51.456;12.626;2024-02-15T05:45:53;6.90;;;5.77;;
13331;SDS011;6735;51.456;12.626;2024-02-15T05:48:19;3.60;;;3.30;;
13331;SDS011;6735;51.456;12.626;2024-02-15T05:50:46;3.10;;;2.80;;
13331;SDS011;6735;51.456;12.626;2024-02-15T05:53:12;3.33;;;2.70;;
13331;SDS011;6735;51.456;12.626;2024-02-15T05:55:37;2.63;;;2.43;;
13331;SDS011;6735;51.456;12.626;2024-02-15T05:58:05;4.13;;;2.47;;
13331;SDS011;6735;51.456;12.626;2024-02-15T06:00:34;2.87;;;2.63;;
13331;SDS011;6735;51.456;12.626;2024-02-15T06:03:00;2.73;;;2.53;;
13331;SDS011;6735;51.456;12.626;2024-02-15T06:05:28;3.43;;;2.40;;
13331;SDS011;6735;51.456;12.626;2024-02-15T06:07:53;4.03;;;2.60;;
13331;SDS011;6735;51.456;12.626;2024-02-15T06:10:19;4.60;;;2.93;;
13331;SDS011;6735;51.456;12.626;2024-02-15T06:12:44;2.50;;;2.30;;
13331;SDS011;6735;51.456;12.626;2024-02-15T06:15:10;5.07;;;2.43;;
13331;SDS011;6735;51.456;12.626;2024-02-15T06:17:40;2.40;;;2.30;;
13331;SDS011;6735;51.456;12.626;2024-02-15T06:20:09;2.37;;;2.20;;
13331;SDS011;6735;51.456;12.626;2024-02-15T06:22:39;2.77;;;2.50;;
13331;SDS011;6735;51.456;12.626;2024-02-15T06:25:04;2.87;;;2.67;;
13331;SDS011;6735;51.456;12.626;2024-02-15T06:27:30;5.07;;;3.07;;
13331;SDS011;6735;51.456;12.626;2024-02-15T06:29:57;3.27;;;2.57;;
13331;SDS011;6735;51.456;12.626;2024-02-15T06:32:41;2.80;;;2.60;;
13331;SDS011;6735;51.456;12.626;2024-02-15T06:35:26;2.53;;;2.33;;
13331;SDS011;6735;51.456;12.626;2024-02-15T06:38:10;5.20;;;2.67;;
13331;SDS011;6735;51.456;12.626;2024-02-15T06:40:54;2.30;;;2.10;;
13331;SDS011;6735;51.456;12.626;2024-02-15T06:43:19;2.63;;;2.43;;
13331;SDS011;6735;51.456;12.626;2024-02-15T06:45:45;3.23;;;2.50;;
13331;SDS011;6735;51.456;12.626;2024-02-15T06:48:12;2.70;;;2.50;;
13331;SDS011;6735;51.456;12.626;2024-02-15T06:50:38;6.80;;;3.07;;
13331;SDS011;6735;51.456;12.626;2024-02-15T06:53:04;3.03;;;2.77;;
13331;SDS011;6735;51.456;12.626;2024-02-15T06:55:30;3.07;;;2.77;;
13331;SDS011;6735;51.456;12.626;2024-02-15T06:57:55;2.93;;;2.67;;
13331;SDS011;6735;51.456;12.626;2024-02-15T07:00:21;3.57;;;2.70;;
13331;SDS011;6735;51.456;12.626;2024-02-15T07:02:47;2.67;;;2.47;;
13331;SDS011;6735;51.456;12.626;2024-02-15T07:05:13;4.43;;;2.80;;
13331;SDS011;6735;51.456;12.626;2024-02-15T07:07:42;3.60;;;3.00;;
13331;SDS011;6735;51.456;12.626;2024-02-15T07:10:08;2.73;;;2.50;;
13331;SDS011;6735;51.456;12.626;2024-02-15T07:12:34;4.70;;;2.83;;
13331;SDS011;6735;51.456;12.626;2024-02-15T07:15:00;6.30;;;3.20;;
13331;SDS011;6735;51.456;12.626;2024-02-15T07:17:28;4.40;;;3.00;;
13331;SDS011;6735;51.456;12.626;2024-02-15T07:19:54;3.90;;;3.20;;
13331;SDS011;6735;51.456;12.626;2024-02-15T07:22:20;5.87;;;3.10;;
13331;SDS011;6735;51.456;12.626;2024-02-15T07:24:48;3.17;;;2.90;;
13331;SDS011;6735;51.456;12.626;2024-02-15T07:27:13;3.30;;;3.00;;
13331;SDS011;6735;51.456;12.626;2024-02-15T07:29:39;3.20;;;2.90;;
13331;SDS011;6735;51.456;12.626;2024-02-15T07:32:05;3.60;;;2.87;;
13331;SDS011;6735;51.456;12.626;2024-02-15T07:34:31;2.53;;;2.33;;
13331;SDS011;6735;51.456;12.626;2024-02-15T07:36:57;4.23;;;3.00;;
13331;SDS011;6735;51.456;12.626;2024-02-15T07:39:24;3.67;;;2.93;;
13331;SDS011;6735;51.456;12.626;2024-02-15T07:41:52;4.23;;;2.97;;
13331;SDS011;6735;51.456;12.626;2024-02-15T07:44:19;2.77;;;2.57;;
13331;SDS011;6735;51.456;12.626;2024-02-15T07:46:45;3.13;;;2.70;;
13331;SDS011;6735;51.456;12.626;2024-02-15T07:49:11;3.37;;;2.80;;
13331;SDS011;6735;51.456;12.626;2024-02-15T07:51:36;3.00;;;2.50;;
13331;SDS011;6735;51.456;12.626;2024-02-15T07:54:02;4.57;;;2.60;;
13331;SDS011;6735;51.456;12.626;2024-02-15T07:56:28;3.50;;;3.10;;
13331;SDS011;6735;51.456;12.626;2024-02-15T07:58:53;3.80;;;3.43;;
13331;SDS011;6735;51.456;12.626;2024-02-15T08:01:19;3.23;;;2.67;;
13331;SDS011;6735;51.456;12.626;2024-02-15T08:03:48;2.90;;;2.60;;
13331;SDS011;6735;51.456;12.626;2024-02-15T08:06:14;3.30;;;3.00;;
13331;SDS011;6735;51.456;12.626;2024-02-15T08:08:44;3.50;;;2.83;;
13331;SDS011;6735;51.456;12.626;2024-02-15T08:11:11;2.90;;;2.67;;
13331;SDS011;6735;51.456;12.626;2024-02-15T08:13:50;3.17;;;2.90;;
13331;SDS011;6735;51.456;12.626;2024-02-15T08:16:19;3.37;;;2.60;;
13331;SDS011;6735;51.456;12.626;2024-02-15T08:18:52;3.70;;;3.30;;
13331;SDS011;6735;51.456;12.626;2024-02-15T08:21:24;3.43;;;3.13;;
13331;SDS011;6735;51.456;12.626;2024-02-15T08:23:54;3.70;;;3.10;;
13331;SDS011;6735;51.456;12.626;2024-02-15T08:26:20;2.83;;;2.63;;
13331;SDS011;6735;51.456;12.626;2024-02-15T08:28:46;3.90;;;2.97;;
13331;SDS011;6735;51.456;12.626;2024-02-15T08:31:12;3.17;;;2.87;;
13331;SDS011;6735;51.456;12.626;2024-02-15T08:33:40;3.80;;;2.97;;
13331;SDS011;6735;51.456;12.626;2024-02-15T08:36:06;5.87;;;3.10;;
13331;SDS011;6735;51.456;12.626;2024-02-15T08:38:32;3.90;;;3.20;;
13331;SDS011;6735;51.456;12.626;2024-02-15T08:40:59;3.50;;;3.20;;
13331;SDS011;6735;51.456;12.626;2024-02-15T08:43:24;3.73;;;2.90;;
13331;SDS011;6735;51.456;12.626;2024-02-15T08:45:50;3.03;;;2.83;;
13331;SDS011;6735;51.456;12.626;2024-02-15T08:48:15;3.50;;;3.07;;
13331;SDS011;6735;51.456;12.626;2024-02-15T08:50:42;3.87;;;3.10;;
13331;SDS011;6735;51.456;12.626;2024-02-15T08:53:10;3.27;;;2.97;;
13331;SDS011;6735;51.456;12.626;2024-02-15T08:55:36;4.10;;;2.90;;
13331;SDS011;6735;51.456;12.626;2024-02-15T08:58:01;4.07;;;2.90;;
13331;SDS011;6735;51.456;12.626;2024-02-15T09:00:27;4.77;;;3.00;;
13331;SDS011;6735;51.456;12.626;2024-02-15T09:02:53;4.60;;;3.37;;
13331;SDS011;6735;51.456;12.626;2024-02-15T09:05:18;3.10;;;2.80;;
13331;SDS011;6735;51.456;12.626;2024-02-15T09:07:47;3.53;;;3.10;;
13331;SDS011;6735;51.456;12.626;2024-02-15T09:10:13;3.13;;;2.77;;
13331;SDS011;6735;51.456;12.626;2024-02-15T09:12:40;3.30;;;2.97;;
13331;SDS011;6735;51.456;12.626;2024-02-15T09:15:07;3.40;;;2.97;;
13331;SDS011;6735;51.456;12.626;2024-02-15T09:17:34;3.07;;;2.87;;
13331;SDS011;6735;51.456;12.626;2024-02-15T09:20:04;3.43;;;2.90;;
13331;SDS011;6735;51.456;12.626;2024-02-15T09:22:54;3.47;;;2.90;;
13331;SDS011;6735;51.456;12.626;2024-02-15T09:25:21;3.70;;;3.20;;
13331;SDS011;6735;51.456;12.626;2024-02-15T09:27:50;3.30;;;2.70;;
13331;SDS011;6735;51.456;12.626;2024-02-15T09:30:17;3.37;;;2.77;;
13331;SDS011;6735;51.456;12.626;2024-02-15T09:32:42;3.07;;;2.77;;
13331;SDS011;6735;51.456;12.626;2024-02-15T09:35:09;3.03;;;2.83;;
13331;SDS011;6735;51.456;12.626;2024-02-15T09:37:43;3.00;;;2.80;;
13331;SDS011;6735;51.456;12.626;2024-02-15T09:40:15;2.80;;;2.60;;
13331;SDS011;6735;51.456;12.626;2024-02-15T09:42:43;3.83;;;3.07;;
13331;SDS011;6735;51.456;12.626;2024-02-15T09:45:12;3.27;;;2.90;;
13331;SDS011;6735;51.456;12.626;2024-02-15T09:47:44;4.20;;;2.87;;
13331;SDS011;6735;51.456;12.626;2024-02-15T09:50:10;3.03;;;2.77;;
13331;SDS011;6735;51.456;12.626;2024-02-15T09:52:39;3.87;;;2.97;;
13331;SDS011;6735;51.456;12.626;2024-02-15T09:55:06;3.83;;;2.80;;
13331;SDS011;6735;51.456;12.626;2024-02-15T09:57:37;3.07;;;2.70;;
13331;SDS011;6735;51.456;12.626;2024-02-15T10:00:03;2.83;;;2.63;;
13331;SDS011;6735;51.456;12.626;2024-02-15T10:02:32;3.77;;;2.70;;
13331;SDS011;6735;51.456;12.626;2024-02-15T10:05:00;3.30;;;2.50;;
13331;SDS011;6735;51.456;12.626;2024-02-15T10:07:27;2.70;;;2.50;;
13331;SDS011;6735;51.456;12.626;2024-02-15T10:09:52;3.10;;;2.90;;
13331;SDS011;6735;51.456;12.626;2024-02-15T10:12:18;6.30;;;3.00;;
13331;SDS011;6735;51.456;12.626;2024-02-15T10:14:50;3.30;;;3.00;;
13331;SDS011;6735;51.456;12.626;2024-02-15T10:17:20;2.87;;;2.57;;
13331;SDS011;6735;51.456;12.626;2024-02-15T10:20:02;2.97;;;2.77;;
13331;SDS011;6735;51.456;12.626;2024-02-15T10:22:28;3.50;;;3.20;;
13331;SDS011;6735;51.456;12.626;2024-02-15T10:25:09;3.07;;;2.83;;
13331;SDS011;6735;51.456;12.626;2024-02-15T10:27:36;3.77;;;2.57;;
13331;SDS011;6735;51.456;12.626;2024-02-15T10:30:13;2.90;;;2.60;;
13331;SDS011;6735;51.456;12.626;2024-02-15T10:32:43;3.20;;;2.90;;
13331;SDS011;6735;51.456;12.626;2024-02-15T10:35:09;2.83;;;2.63;;
13331;SDS011;6735;51.456;12.626;2024-02-15T10:37:40;3.90;;;2.80;;
13331;SDS011;6735;51.456;12.626;2024-02-15T10:40:06;2.63;;;2.37;;
13331;SDS011;6735;51.456;12.626;2024-02-15T10:42:32;3.73;;;3.40;;
13331;SDS011;6735;51.456;12.626;2024-02-15T10:44:59;3.00;;;2.80;;
13331;SDS011;6735;51.456;12.626;2024-02-15T10:47:30;2.80;;;2.60;;
13331;SDS011;6735;51.456;12.626;2024-02-15T10:49:56;3.70;;;3.27;;
13331;SDS011;6735;51.456;12.626;2024-02-15T10:52:23;2.73;;;2.53;;
13331;SDS011;6735;51.456;12.626;2024-02-15T10:54:55;3.53;;;2.73;;
13331;SDS011;6735;51.456;12.626;2024-02-15T10:57:33;2.83;;;2.63;;
13331;SDS011;6735;51.456;12.626;2024-02-15T11:00:04;2.60;;;2.40;;
13331;SDS011;6735;51.456;12.626;2024-02-15T11:02:42;2.60;;;2.40;;
13331;SDS011;6735;51.456;12.626;2024-02-15T11:05:13;4.37;;;2.20;;
13331;SDS011;6735;51.456;12.626;2024-02-15T11:07:45;3.63;;;2.27;;
13331;SDS011;6735;51.456;12.626;2024-02-15T11:10:11;3.17;;;2.80;;
13331;SDS011;6735;51.456;12.626;2024-02-15T11:12:41;2.80;;;2.20;;
13331;SDS011;6735;51.456;12.626;2024-02-15T11:15:08;2.30;;;2.10;;
13331;SDS011;6735;51.456;12.626;2024-02-15T11:20:04;4.00;;;2.40;;
13331;SDS011;6735;51.456;12.626;2024-02-15T11:22:34;2.30;;;2.10;;
13331;SDS011;6735;51.456;12.626;2024-02-15T11:25:03;2.30;;;2.20;;
13331;SDS011;6735;51.456;12.626;2024-02-15T11:27:40;3.53;;;2.47;;
13331;SDS011;6735;51.456;12.626;2024-02-15T11:30:06;2.67;;;2.13;;
13331;SDS011;6735;51.456;12.626;2024-02-15T11:32:44;2.97;;;2.67;;
13331;SDS011;6735;51.456;12.626;2024-02-15T11:40:21;2.23;;;2.10;;
13331;SDS011;6735;51.456;12.626;2024-02-15T11:42:51;3.03;;;2.20;;
13331;SDS011;6735;51.456;12.626;2024-02-15T11:45:24;2.17;;;1.97;;
13331;SDS011;6735;51.456;12.626;2024-02-15T11:47:51;2.83;;;2.17;;
13331;SDS011;6735;51.456;12.626;2024-02-15T11:50:19;2.40;;;2.20;;
13331;SDS011;6735;51.456;12.626;2024-02-15T11:52:46;2.03;;;1.93;;
13331;SDS011;6735;51.456;12.626;2024-02-15T11:55:14;2.53;;;2.33;;
13331;SDS011;6735;51.456;12.626;2024-02-15T11:57:54;2.33;;;2.10;;
13331;SDS011;6735;51.456;12.626;2024-02-15T12:00:26;2.00;;;1.90;;
13331;SDS011;6735;51.456;12.626;2024-02-15T12:03:10;3.77;;;1.93;;
13331;SDS011;6735;51.456;12.626;2024-02-15T12:05:57;2.60;;;2.47;;
13331;SDS011;6735;51.456;12.626;2024-02-15T12:08:45;3.00;;;2.00;;
13331;SDS011;6735;51.456;12.626;2024-02-15T12:11:31;2.47;;;2.27;;
13331;SDS011;6735;51.456;12.626;2024-02-15T12:14:16;3.17;;;2.33;;
13331;SDS011;6735;51.456;12.626;2024-02-15T12:19:48;2.63;;;2.40;;
13331;SDS011;6735;51.456;12.626;2024-02-15T12:22:16;2.17;;;1.93;;
13331;SDS011;6735;51.456;12.626;2024-02-15T12:24:45;2.83;;;2.17;;
13331;SDS011;6735;51.456;12.626;2024-02-15T12:27:17;1.93;;;1.83;;
13331;SDS011;6735;51.456;12.626;2024-02-15T12:29:45;2.70;;;2.50;;
13331;SDS011;6735;51.456;12.626;2024-02-15T12:32:19;3.77;;;2.37;;
13331;SDS011;6735;51.456;12.626;2024-02-15T12:34:45;2.37;;;2.20;;
13331;SDS011;6735;51.456;12.626;2024-02-15T12:37:12;2.53;;;2.33;;
13331;SDS011;6735;51.456;12.626;2024-02-15T12:39:38;2.87;;;2.20;;
13331;SDS011;6735;51.456;12.626;2024-02-15T12:42:03;2.60;;;2.00;;
13331;SDS011;6735;51.456;12.626;2024-02-15T12:44:32;1.70;;;1.60;;
13331;SDS011;6735;51.456;12.626;2024-02-15T12:46:58;1.87;;;1.77;;
13331;SDS011;6735;51.456;12.626;2024-02-15T12:51:51;3.30;;;2.37;;
13331;SDS011;6735;51.456;12.626;2024-02-15T12:54:21;2.37;;;2.17;;
13331;SDS011;6735;51.456;12.626;2024-02-15T12:56:47;2.23;;;2.10;;
13331;SDS011;6735;51.456;12.626;2024-02-15T12:59:18;3.63;;;2.23;;
13331;SDS011;6735;51.456;12.626;2024-02-15T13:01:44;2.73;;;2.30;;
13331;SDS011;6735;51.456;12.626;2024-02-15T13:04:20;2.40;;;2.20;;
13331;SDS011;6735;51.456;12.626;2024-02-15T13:06:53;2.57;;;2.30;;
13331;SDS011;6735;51.456;12.626;2024-02-15T13:09:18;2.20;;;2.10;;
13331;SDS011;6735;51.456;12.626;2024-02-15T13:11:44;3.47;;;2.20;;
13331;SDS011;6735;51.456;12.626;2024-02-15T13:14:11;2.73;;;2.17;;
13331;SDS011;6735;51.456;12.626;2024-02-15T13:16:38;5.33;;;2.30;;
13331;SDS011;6735;51.456;12.626;2024-02-15T13:19:03;2.30;;;2.10;;
13331;SDS011;6735;51.456;12.626;2024-02-15T13:21:31;2.27;;;2.07;;
13331;SDS011;6735;51.456;12.626;2024-02-15T13:23:59;2.30;;;2.10;;
13331;SDS011;6735;51.456;12.626;2024-02-15T13:26:24;2.17;;;2.00;;
13331;SDS011;6735;51.456;12.626;2024-02-15T13:28:51;2.90;;;2.20;;
13331;SDS011;6735;51.456;12.626;2024-02-15T13:31:17;2.83;;;2.50;;
13331;SDS011;6735;51.456;12.626;2024-02-15T13:33:42;2.87;;;2.10;;
13331;SDS011;6735;51.456;12.626;2024-02-15T13:36:08;3.03;;;2.60;;
13331;SDS011;6735;51.456;12.626;2024-02-15T13:38:36;2.20;;;2.10;;
13331;SDS011;6735;51.456;12.626;2024-02-15T13:41:02;2.93;;;2.40;;
13331;SDS011;6735;51.456;12.626;2024-02-15T13:43:28;2.63;;;2.43;;
13331;SDS011;6735;51.456;12.626;2024-02-15T13:45:54;2.33;;;2.13;;
13331;SDS011;6735;51.456;12.626;2024-02-15T13:48:19;2.53;;;2.13;;
13331;SDS011;6735;51.456;12.626;2024-02-15T13:50:45;3.03;;;2.50;;
13331;SDS011;6735;51.456;12.626;2024-02-15T13:53:10;3.63;;;2.20;;
13331;SDS011;6735;51.456;12.626;2024-02-15T13:55:38;2.40;;;2.20;;
13331;SDS011;6735;51.456;12.626;2024-02-15T13:58:04;2.37;;;2.17;;
13331;SDS011;6735;51.456;12.626;2024-02-15T14:00:32;2.43;;;2.00;;
13331;SDS011;6735;51.456;12.626;2024-02-15T14:02:59;3.73;;;2.67;;
13331;SDS011;6735;51.456;12.626;2024-02-15T14:05:27;3.67;;;2.17;;
13331;SDS011;6735;51.456;12.626;2024-02-15T14:08:00;2.17;;;2.07;;
13331;SDS011;6735;51.456;12.626;2024-02-15T14:10:36;2.43;;;2.27;;
13331;SDS011;6735;51.456;12.626;2024-02-15T14:13:02;2.37;;;1.90;;
13331;SDS011;6735;51.456;12.626;2024-02-15T14:15:29;2.20;;;1.97;;
13331;SDS011;6735;51.456;12.626;2024-02-15T14:17:54;2.00;;;1.90;;
13331;SDS011;6735;51.456;12.626;2024-02-15T14:20:21;3.20;;;2.07;;
13331;SDS011;6735;51.456;12.626;2024-02-15T14:22:48;2.73;;;2.53;;
13331;SDS011;6735;51.456;12.626;2024-02-15T14:25:15;3.30;;;2.20;;
13331;SDS011;6735;51.456;12.626;2024-02-15T14:27:41;2.90;;;2.43;;
13331;SDS011;6735;51.456;12.626;2024-02-15T14:30:10;2.20;;;1.93;;
13331;SDS011;6735;51.456;12.626;2024-02-15T14:32:54;2.20;;;2.00;;
13331;SDS011;6735;51.456;12.626;2024-02-15T14:35:32;2.20;;;2.10;;
13331;SDS011;6735;51.456;12.626;2024-02-15T14:37:59;2.00;;;1.80;;
13331;SDS011;6735;51.456;12.626;2024-02-15T14:40:27;2.20;;;1.97;;
13331;SDS011;6735;51.456;12.626;2024-02-15T14:42:53;2.10;;;2.00;;
13331;SDS011;6735;51.456;12.626;2024-02-15T14:45:19;3.50;;;2.00;;
13331;SDS011;6735;51.456;12.626;2024-02-15T14:47:44;2.50;;;2.30;;
13331;SDS011;6735;51.456;12.626;2024-02-15T14:50:11;2.30;;;2.10;;
13331;SDS011;6735;51.456;12.626;2024-02-15T14:52:38;2.47;;;2.27;;
13331;SDS011;6735;51.456;12.626;2024-02-15T14:55:04;3.53;;;2.23;;
13331;SDS011;6735;51.456;12.626;2024-02-15T14:57:32;2.37;;;2.17;;
13331;SDS011;6735;51.456;12.626;2024-02-15T15:00:02;2.73;;;2.47;;
13331;SDS011;6735;51.456;12.626;2024-02-15T15:02:39;2.13;;;2.00;;
13331;SDS011;6735;51.456;12.626;2024-02-15T15:05:06;2.60;;;2.40;;
13331;SDS011;6735;51.456;12.626;2024-02-15T15:07:52;2.47;;;2.27;;